Terminal Aerodrome Forecast
Issued by NWS Houston/Galveston, TX

Home | Current Version | Previous Version | Text Only | Print | Product List | Glossary On
Versions: 1 2 3 4 5 6 7 8 9 10 11 12 13 14 15 16 17 18
000
FTUS44 KHGX 171725
TAFGLS
TAF
KGLS 171725Z 1718/1818 08017KT P6SM SCT025 BKN060
     FM180200 07013KT P6SM SCT020 BKN050
     FM181100 02012KT P6SM SCT015 BKN040
     FM181500 03013KT P6SM BKN040=

USA.gov is the U.S. government's official web portal to all federal, state and local government web resources and services.